RÉSULTATS    Courons pour changer le diabète - Novo Nordisk - Édition du 17/11/2018


Vous pouvez changer la distance ici.

Vous pouvez changer la distance ici.

Classement PDF Général Classement PDF Alphabétique Photos de l'évènement Classement Temps Réel - Temps Puce

699 participants - 432 Hommes - 267 Femmes
94 licenciés (13%) - 605 non-licenciés (87%)

Temps moyen : 00:54:18


    Page / 28



Pos. Temps Nom - Prénom Club Dossard Catégorie km/h Temps Reel
101 00:45:19 BONVALLET Xavier LES G.O 232 V1M (28 / 136) 13.2 00:45:14
102 00:45:26 FOUQUET Sebastien POLE RH - INTERIM 52 V1M (29 / 136) 13.3 00:45:05
103 00:45:27 PERDOUX Bruno CHARTRES METROPOLE TRIATHLON 379 V1M (30 / 136) 13.2 00:45:18
104 00:45:31 PUGEAULT Ludovic 560 SEM (44 / 156) 13.2 00:45:26
105 00:45:40 DELETANG Beatrice 1423 V1F (2 / 102) 13.3 00:44:54
106 00:45:42 VEDIE Arthur 443 ESM (7 / 12) 13.2 00:45:26
107 00:45:45 PLAISANCE Simon 576 SEM (45 / 156) 13.2 00:45:21
108 00:45:53 DUCHESNE Pascaline 375 SEF (6 / 114) 13.1 00:45:47
109 00:45:59 BEAUJOUAN Emmanuel AS LEVES 244 V1M (31 / 136) 13.1 00:45:48
110 00:46:02 LATIMIER Jean-jacques AS LEVES 332 V3M (5 / 24) 13.0 00:46:00
111 00:46:08 DALL'OZZO David NOVO NORDISK ENTREPRISE 616 V1M (32 / 136) 13.0 00:45:51
112 00:46:08 PFEUFFER Jonathan FAN DE SPORT 28 222 SEM (46 / 156) 13.0 00:46:07
113 00:46:09 REDLER Olivier CHARTRES MMA SPORT ATHLETISME 339 V2M (8 / 85) 13.0 00:46:03
114 00:46:09 GUILLONNEAU Christophe NOVO NORDISK ENTREPRISE 620 V1M (33 / 136) 13.0 00:46:07
115 00:46:10 MORVAN Thomas NOVO NORDISK ENTREPRISE 623 SEM (47 / 156) 13.0 00:46:08
116 00:46:10 LABBE Benoit NOVO NORDISK ENTREPRISE 621 V1M (34 / 136) 13.0 00:46:08
117 00:46:11 GUEGAN Vianney NOVO NORDISK ENTREPRISE 619 SEM (48 / 156) 13.0 00:46:09
118 00:46:11 CHAILLER Nicolas TEAM LES FLAMMES EN ROSE 331 SEM (49 / 156) 13.0 00:46:01
119 00:46:11 VAUDRON Jerome NOVO NORDISK ENTREPRISE 624 SEM (50 / 156) 13.0 00:46:09
120 00:46:11 BLONDEAU Nicolas LES FOULEES BERCHEROISES 319 SEM (51 / 156) 13.0 00:46:03
121 00:46:11 MAILY Guillaume NOVO NORDISK ENTREPRISE 622 SEM (52 / 156) 13.0 00:46:09
122 00:46:13 JANVIER Camille NOVO NORDISK ENTREPRISE 602 SEF (7 / 114) 12.9 00:46:11
123 00:46:17 ROCHE Guillaume 447 SEM (53 / 156) 13.1 00:45:43
124 00:46:19 CHAUVEAU Laurent SOBHI SPORT CHARTRES 67 V1M (35 / 136) 13.0 00:45:58
125 00:46:21 FAUVEL Lisa NOVO NORDISK ENTREPRISE 599 V2F (1 / 43) 12.9 00:46:19